Latest Weather Observations for Broome

IDW60801

Issued at 11:05 pm WST Tuesday 21 October 2014 (issued every 30 minutes, with the page automatically refreshed every 10 minutes)

About weather observations | Map of weather stations | Latest weather observations for WA | Other Formats
Station Details ID: 003003 Name: BROOME AIRPORT Lat: -17.95 Lon: 122.24 Height: 7.42 m
Data from the previous 72 hours. | See also: Recent months at Broome
Date/Time
WST
Temp
°C
App
Temp
°C
Dew
Point
Rel
Hum
%
Delta-T
°C
Wind Press
QNH
hPa
Press
MSL
hPa
Rain
since 9 am
mm
Dir
 
Spd
km/h
Gust
km/h
Spd
kts
Gust
kts
21/11:00pm 26.2 30.1 24.3 89 1.3 WNW 11 15 6 8 1012.0 - 0.0
21/10:30pm 26.4 30.0 24.4 89 1.4 WNW 13 20 7 11 1012.2 - 0.0
21/10:00pm 26.6 30.2 24.3 87 1.6 W 13 20 7 11 1012.2 - 0.0
21/09:30pm 26.8 29.2 24.2 86 1.8 W 19 26 10 14 1012.1 - 0.0
21/09:00pm 26.6 30.4 24.0 86 1.8 WNW 11 19 6 10 1012.4 1012.3 0.0
21/08:30pm 26.8 29.7 23.9 84 2.0 W 15 22 8 12 1012.4 - 0.0
21/08:00pm 26.9 30.3 24.0 84 2.0 W 13 20 7 11 1012.6 - 0.0
21/07:30pm 26.9 30.5 23.8 83 2.1 WNW 11 19 6 10 1012.4 - 0.0
21/07:00pm 27.5 30.5 23.3 78 2.9 W 13 19 7 10 1012.2 - 0.0
21/06:30pm 27.8 30.5 22.8 74 3.4 W 13 20 7 11 1011.8 - 0.0
21/06:00pm 27.8 30.1 23.4 77 3.0 W 17 24 9 13 1011.2 1011.1 0.0
21/05:30pm 28.4 30.2 23.3 74 3.5 W 19 26 10 14 1010.9 - 0.0
21/05:00pm 29.2 30.9 23.4 71 4.0 W 20 30 11 16 1010.5 - 0.0
21/04:30pm 29.8 30.8 22.9 66 4.7 W 22 30 12 16 1010.4 - 0.0
21/04:00pm 30.1 31.4 23.3 67 4.7 W 22 30 12 16 1010.2 - 0.0
21/03:30pm 30.1 31.0 23.3 67 4.7 W 24 32 13 17 1010.3 - 0.0
21/03:00pm 30.3 30.6 23.0 65 5.0 W 26 33 14 18 1010.4 1010.3 0.0
21/02:30pm 30.3 30.9 22.8 64 5.1 W 24 37 13 20 1010.5 - 0.0
21/02:00pm 30.9 30.7 22.1 59 6.0 W 26 35 14 19 1010.9 - 0.0
21/01:30pm 30.2 30.8 22.1 62 5.5 W 22 32 12 17 1011.4 - 0.0
21/01:00pm 30.5 30.5 21.6 59 6.0 WNW 24 33 13 18 1011.9 - 0.0
21/12:30pm 30.4 30.4 21.6 59 5.9 WNW 24 32 13 17 1012.5 - 0.0
21/12:00pm 31.8 32.7 21.9 55 6.7 WNW 20 30 11 16 1013.1 1013.0 0.0
21/11:30am 31.4 31.8 20.9 53 7.0 NNW 20 26 11 14 1013.8 - 0.0
21/11:00am 32.1 32.2 19.1 46 8.5 WNW 17 24 9 13 1014.0 - 0.0
21/10:30am 31.6 31.8 17.7 43 8.9 W 13 19 7 10 1014.3 - 0.0
21/10:00am 31.4 31.7 18.0 44 8.6 NW 13 17 7 9 1014.7 - 0.0
21/09:30am 31.4 32.0 15.8 39 9.7 WNW 7 13 4 7 1015.0 - 0.0
21/09:00am 30.7 30.7 17.3 44 8.5 WSW 13 19 7 10 1014.5 1014.4 0.0
21/08:30am 29.6 28.4 17.6 48 7.6 SSW 20 30 11 16 1014.4 - 0.0
21/08:00am 28.9 29.0 19.9 58 5.9 S 19 26 10 14 1014.2 - 0.0
21/07:30am 28.5 29.5 21.1 64 4.9 S 17 24 9 13 1014.0 - 0.0
21/07:00am 27.7 29.5 21.1 67 4.4 S 13 20 7 11 1013.8 - 0.0
21/06:30am 27.0 29.1 20.9 69 4.0 SSW 11 17 6 9 1013.4 - 0.0
21/06:00am 26.0 28.3 21.3 75 3.1 S 11 17 6 9 1013.2 1013.1 0.0
21/05:30am 25.6 28.2 21.9 80 2.5 S 11 15 6 8 1013.1 - 0.0
21/05:00am 26.2 28.5 20.6 71 3.7 SSW 9 11 5 6 1013.1 - 0.0
21/04:30am 26.1 28.2 20.1 69 3.9 SW 9 13 5 7 1012.9 - 0.0
21/04:00am 26.4 27.9 19.8 67 4.3 SW 11 15 6 8 1012.5 - 0.0
21/03:30am 26.5 27.3 19.9 67 4.3 SW 15 22 8 12 1012.4 - 0.0
21/03:00am 26.3 27.4 19.7 67 4.3 SW 13 17 7 9 1012.3 1012.2 0.0
21/02:30am 25.9 27.8 20.6 72 3.5 WSW 11 15 6 8 1012.3 - 0.0
21/02:00am 26.0 28.6 21.2 75 3.2 WSW 9 13 5 7 1012.6 - 0.0
21/01:30am 26.2 28.1 20.6 71 3.7 SW 11 17 6 9 1012.7 - 0.0
21/01:00am 26.3 28.4 21.0 72 3.5 WSW 11 15 6 8 1012.6 - 0.0
21/12:30am 26.0 28.0 21.5 76 3.0 WSW 13 15 7 8 1012.6 - 0.0
21/12:00am 26.2 28.4 21.2 74 3.3 W 11 13 6 7 1013.0 1012.9 0.0
 
Date/Time
WST
Temp
°C
App
Temp
°C
Dew
Point
Rel
Hum
%
Delta-T
°C
Wind Press
QNH
hPa
Press
MSL
hPa
Rain
since 9 am
mm
Dir
 
Spd
km/h
Gust
km/h
Spd
kts
Gust
kts
20/11:30pm 26.4 28.2 21.1 72 3.5 SW 13 15 7 8 1013.3 - 0.0
20/11:00pm 26.4 28.7 21.4 74 3.3 WSW 11 15 6 8 1013.6 - 0.0
20/10:30pm 26.8 28.6 21.2 71 3.7 WSW 13 17 7 9 1013.8 - 0.0
20/10:00pm 26.7 29.4 22.1 76 3.1 WSW 11 17 6 9 1014.0 - 0.0
20/09:30pm 27.0 28.3 21.6 72 3.6 W 17 22 9 12 1013.9 - 0.0
20/09:00pm 27.0 28.6 22.1 74 3.3 W 17 26 9 14 1013.9 1013.8 0.0
20/08:30pm 27.1 28.6 22.0 73 3.4 W 17 24 9 13 1013.8 - 0.0
20/08:00pm 27.2 28.6 21.8 72 3.6 W 17 22 9 12 1013.6 - 0.0
20/07:30pm 27.3 28.6 21.6 71 3.8 W 17 24 9 13 1013.3 - 0.0
20/07:00pm 27.4 28.0 21.1 68 4.2 W 19 24 10 13 1012.8 - 0.0
20/06:30pm 27.3 28.2 21.6 71 3.8 W 19 26 10 14 1012.6 - 0.0
20/06:00pm 27.4 28.7 21.6 70 3.9 W 17 28 9 15 1012.3 1012.2 0.0
20/05:30pm 27.8 28.7 22.0 70 3.9 W 20 28 11 15 1011.9 - 0.0
20/05:00pm 28.4 28.6 22.0 68 4.3 W 24 30 13 16 1011.7 - 0.0
20/04:30pm 28.5 28.6 21.8 67 4.5 W 24 30 13 16 1011.6 - 0.0
20/04:00pm 29.4 29.9 22.0 64 5.0 W 22 32 12 17 1011.5 - 0.0
20/03:30pm 29.3 29.2 21.4 62 5.3 W 24 32 13 17 1011.6 - 0.0
20/03:00pm 29.5 29.4 21.4 61 5.4 W 24 33 13 18 1011.7 1011.6 0.0
20/02:30pm 29.7 29.0 21.0 59 5.8 W 26 35 14 19 1011.8 - 0.0
20/02:00pm 30.1 29.6 20.8 57 6.2 W 24 33 13 18 1012.1 - 0.0
20/01:30pm 29.4 29.4 21.7 63 5.2 W 24 32 13 17 1012.5 - 0.0
20/01:00pm 29.8 29.9 21.8 62 5.4 W 24 32 13 17 1013.0 - 0.0
20/12:30pm 29.6 30.6 22.2 64 5.0 W 20 30 11 16 1013.5 - 0.0
20/12:00pm 30.0 31.0 21.8 61 5.5 W 19 28 10 15 1014.2 1014.1 0.0
20/11:30am 29.6 30.8 22.2 64 5.0 W 19 26 10 14 1014.6 - 0.0
20/11:00am 30.5 31.6 21.9 60 5.8 W 19 24 10 13 1014.8 - 0.0
20/10:30am 30.0 31.0 21.7 61 5.6 W 19 26 10 14 1015.1 - 0.0
20/10:00am 30.0 31.0 21.7 61 5.6 WSW 19 26 10 14 1015.2 - 0.0
20/09:30am 30.2 31.0 21.4 59 5.9 W 19 20 10 11 1015.6 - 0.0
20/09:00am 29.0 31.1 21.0 62 5.3 SW 11 19 6 10 1016.0 1015.9 0.0
20/08:30am 29.5 31.4 21.3 61 5.5 WSW 13 19 7 10 1015.7 - 0.0
20/08:00am 28.9 30.0 20.4 60 5.6 SW 15 20 8 11 1015.5 - 0.0
20/07:30am 28.4 29.7 20.8 63 5.0 SW 15 19 8 10 1015.2 - 0.0
20/07:00am 27.8 29.6 21.2 67 4.4 SSW 13 19 7 10 1014.7 - 0.0
20/06:30am 26.3 29.3 22.0 77 2.9 SSW 9 11 5 6 1014.2 - 0.0
20/06:00am 23.1 27.5 21.4 90 1.1 CALM 0 0 0 0 1013.8 1013.7 0.0
20/05:30am 21.7 25.3 20.6 93 0.7 SSW 2 9 1 5 1013.5 - 0.0
20/05:00am 22.8 27.2 21.4 92 0.9 CALM 0 4 0 2 1013.0 - 0.0
20/04:30am 24.4 27.5 21.4 83 2.0 SSW 7 9 4 5 1012.5 - 0.0
20/04:00am 24.1 27.4 21.8 87 1.5 SW 7 7 4 4 1012.4 - 0.0
20/03:30am 24.6 28.1 22.1 86 1.7 SW 7 7 4 4 1012.2 - 0.0
20/03:00am 25.0 28.0 22.0 83 2.0 SW 9 11 5 6 1012.0 1011.9 0.0
20/02:30am 25.5 28.5 21.9 80 2.4 SSW 9 13 5 7 1012.1 - 0.0
20/02:00am 25.6 28.7 22.2 81 2.3 SSW 9 11 5 6 1012.1 - 0.0
20/01:30am 25.4 28.5 22.1 82 2.2 SW 9 11 5 6 1012.2 - 0.0
20/01:00am 25.4 28.1 22.1 82 2.2 SW 11 13 6 7 1012.3 - 0.0
20/12:30am 25.4 28.6 22.3 83 2.1 SW 9 11 5 6 1012.6 - 0.0
20/12:00am 25.5 28.6 22.2 82 2.2 WSW 9 11 5 6 1013.0 1012.9 0.0
 
Date/Time
WST
Temp
°C
App
Temp
°C
Dew
Point
Rel
Hum
%
Delta-T
°C
Wind Press
QNH
hPa
Press
MSL
hPa
Rain
since 9 am
mm
Dir
 
Spd
km/h
Gust
km/h
Spd
kts
Gust
kts
19/11:30pm 25.7 28.9 22.3 81 2.3 SW 9 15 5 8 1013.2 - 0.0
19/11:00pm 25.9 28.6 22.2 80 2.5 SW 11 15 6 8 1013.5 - 0.0
19/10:30pm 26.1 28.3 21.9 77 2.8 SW 13 20 7 11 1013.7 - 0.0
19/10:00pm 26.1 28.5 22.2 79 2.6 SW 13 19 7 10 1013.8 - 0.0
19/09:30pm 26.3 28.6 22.1 77 2.8 SW 13 20 7 11 1013.9 - 0.0
19/09:00pm 26.5 28.5 21.5 74 3.3 SW 13 17 7 9 1013.8 1013.7 0.0
19/08:30pm 26.5 28.2 21.7 75 3.2 WSW 15 19 8 10 1013.5 - 0.0
19/08:00pm 26.5 28.3 21.9 76 3.1 WSW 15 20 8 11 1013.1 - 0.0
19/07:30pm 26.5 28.7 21.9 76 3.1 WSW 13 19 7 10 1012.7 - 0.0
19/07:00pm 26.7 27.9 21.4 72 3.5 WSW 17 20 9 11 1012.6 - 0.0
19/06:30pm 26.8 28.1 21.7 73 3.4 WSW 17 24 9 13 1012.2 - 0.0
19/06:00pm 26.9 27.9 21.8 73 3.4 WSW 19 24 10 13 1012.0 1011.9 0.0
19/05:30pm 27.3 27.9 22.1 73 3.5 WSW 22 32 12 17 1011.7 - 0.0
19/05:00pm 27.9 28.0 21.9 70 4.0 WSW 24 32 13 17 1011.4 - 0.0
19/04:30pm 29.1 28.9 22.1 66 4.7 WSW 26 35 14 19 1011.2 - 0.0
19/04:00pm 28.7 27.8 21.4 64 4.9 WSW 28 39 15 21 1011.3 - 0.0
19/03:30pm 29.6 28.8 21.6 62 5.4 WSW 28 35 15 19 1011.5 - 0.0
19/03:00pm 29.2 28.4 21.6 63 5.1 WSW 28 39 15 21 1011.6 1011.5 0.0
19/02:30pm 29.5 29.2 21.8 63 5.2 WSW 26 33 14 18 1011.8 - 0.0
19/02:00pm 29.8 29.6 21.3 60 5.7 WSW 24 33 13 18 1012.1 - 0.0
19/01:30pm 29.8 29.6 22.0 63 5.3 WSW 26 35 14 19 1012.5 - 0.0
19/01:00pm 29.8 30.0 22.1 63 5.2 W 24 33 13 18 1012.9 - 0.0
19/12:30pm 29.8 30.0 22.1 63 5.2 W 24 32 13 17 1013.0 - 0.0
19/12:00pm 29.7 30.1 21.8 62 5.3 W 22 32 12 17 1013.4 1013.3 0.0
19/11:30am 30.2 31.5 21.6 60 5.8 W 17 24 9 13 1013.6 - 0.0
19/11:00am 29.6 30.9 21.6 62 5.4 W 17 24 9 13 1014.0 - 0.0
19/10:30am 30.1 31.4 21.6 60 5.7 W 17 22 9 12 1014.4 - 0.0
19/10:00am 29.0 31.0 21.5 64 5.0 SSW 13 19 7 10 1014.6 - 0.0
19/09:30am 28.0 30.1 22.4 71 3.8 SSE 15 20 8 11 1014.6 - 0.0
19/09:00am 28.7 31.1 22.3 68 4.3 SSE 13 20 7 11 1014.6 1014.5 0.0
19/08:30am 27.9 30.7 22.3 71 3.8 S 11 17 6 9 1014.7 - 0.0
19/08:00am 27.8 29.8 22.2 71 3.8 S 15 20 8 11 1014.6 - 0.0
19/07:30am 27.5 30.0 22.5 74 3.4 SSE 13 20 7 11 1014.3 - 0.0
19/07:00am 27.0 30.0 22.6 77 3.0 S 11 17 6 9 1014.0 - 0.0
19/06:30am 26.9 29.3 22.3 76 3.1 SSW 13 20 7 11 1013.4 - 0.0
19/06:00am 26.2 29.4 22.3 79 2.6 SSW 9 13 5 7 1013.0 1012.9 0.0
19/05:30am 25.9 29.2 22.5 81 2.3 SSW 9 15 5 8 1012.5 - 0.0
19/05:00am 25.8 28.7 22.5 82 2.2 SW 11 17 6 9 1012.1 - 0.0
19/04:30am 25.8 29.2 22.7 83 2.1 SW 9 15 5 8 1011.9 - 0.0
19/04:00am 25.8 28.3 22.4 81 2.3 SW 13 17 7 9 1011.5 - 0.0
19/03:30am 25.8 28.1 22.1 80 2.5 SW 13 15 7 8 1011.3 - 0.0
19/03:00am 25.9 28.2 22.0 79 2.6 SW 13 17 7 9 1011.2 1011.1 0.0
19/02:30am 25.9 28.1 21.9 78 2.7 SW 13 15 7 8 1011.2 - 0.0
19/02:00am 26.1 28.3 21.8 77 2.9 WSW 13 17 7 9 1011.3 - 0.0
19/01:30am 26.0 28.3 22.1 79 2.6 WSW 13 15 7 8 1011.3 - 0.0
19/01:00am 26.2 28.5 22.0 77 2.8 WSW 13 19 7 10 1011.4 - 0.0
19/12:30am 26.3 28.9 22.0 77 2.9 WSW 11 15 6 8 1012.1 - 0.0
19/12:00am 26.3 28.6 22.0 77 2.9 WSW 13 17 7 9 1012.4 1012.3 0.0
 
Date/Time
WST
Temp
°C
App
Temp
°C
Dew
Point
Rel
Hum
%
Delta-T
°C
Wind Press
QNH
hPa
Press
MSL
hPa
Rain
since 9 am
mm
Dir
 
Spd
km/h
Gust
km/h
Spd
kts
Gust
kts
18/11:30pm 26.1 28.7 21.9 77 2.8 SW 11 11 6 6 1012.7 - 0.0

Other Formats:

Comma delimited format used in spreadsheet applications
http://www.bom.gov.au/fwo/IDW60801/IDW60801.94203.axf

JavaScript Object Notation format (JSON) in row-major order
http://www.bom.gov.au/fwo/IDW60801/IDW60801.94203.json